sensor_id;sensor_type;location;lat;lon;timestamp;pressure;altitude;pressure_sealevel;temperature;humidity
73240;BME280;61452;40.054;4.110;2022-07-29T00:01:57;101504.56;;;28.22;68.58
73240;BME280;61452;40.054;4.110;2022-07-29T00:06:59;101491.06;;;28.22;68.38
73240;BME280;61452;40.054;4.110;2022-07-29T00:12:02;101484.66;;;28.15;68.63
73240;BME280;61452;40.054;4.110;2022-07-29T00:17:04;101485.84;;;28.21;68.76
73240;BME280;61452;40.054;4.110;2022-07-29T00:22:07;101496.50;;;28.14;67.07
73240;BME280;61452;40.054;4.110;2022-07-29T00:27:09;101494.13;;;28.19;68.80
73240;BME280;61452;40.054;4.110;2022-07-29T00:32:12;101486.50;;;28.14;69.10
73240;BME280;61452;40.054;4.110;2022-07-29T00:37:14;101473.38;;;28.20;68.90
73240;BME280;61452;40.054;4.110;2022-07-29T00:42:16;101474.22;;;28.20;69.00
73240;BME280;61452;40.054;4.110;2022-07-29T00:47:19;101472.22;;;28.14;69.30
73240;BME280;61452;40.054;4.110;2022-07-29T00:52:21;101472.66;;;28.09;69.97
73240;BME280;61452;40.054;4.110;2022-07-29T00:57:24;101478.44;;;28.06;70.48
73240;BME280;61452;40.054;4.110;2022-07-29T01:02:26;101467.47;;;28.00;70.80
73240;BME280;61452;40.054;4.110;2022-07-29T01:07:29;101466.16;;;27.96;70.71
73240;BME280;61452;40.054;4.110;2022-07-29T01:12:34;101475.06;;;27.96;70.89
73240;BME280;61452;40.054;4.110;2022-07-29T01:33:45;101469.00;;;27.94;71.42
73240;BME280;61452;40.054;4.110;2022-07-29T01:38:59;101465.31;;;27.95;71.16
73240;BME280;61452;40.054;4.110;2022-07-29T01:44:31;101464.47;;;27.95;71.17
73240;BME280;61452;40.054;4.110;2022-07-29T01:49:36;101457.06;;;27.89;71.09
73240;BME280;61452;40.054;4.110;2022-07-29T01:54:52;101466.16;;;27.88;71.60
73240;BME280;61452;40.054;4.110;2022-07-29T01:59:57;101455.53;;;27.86;71.37
73240;BME280;61452;40.054;4.110;2022-07-29T02:05:01;101448.78;;;27.82;71.91
73240;BME280;61452;40.054;4.110;2022-07-29T02:10:06;101453.66;;;27.78;71.72
73240;BME280;61452;40.054;4.110;2022-07-29T02:15:11;101456.38;;;27.78;71.51
73240;BME280;61452;40.054;4.110;2022-07-29T02:20:16;101451.66;;;27.72;72.31
73240;BME280;61452;40.054;4.110;2022-07-29T02:25:21;101462.28;;;27.74;72.36
73240;BME280;61452;40.054;4.110;2022-07-29T02:30:25;101459.41;;;27.75;72.16
73240;BME280;61452;40.054;4.110;2022-07-29T02:35:29;101455.03;;;27.74;72.41
73240;BME280;61452;40.054;4.110;2022-07-29T02:40:38;101457.03;;;27.72;72.64
73240;BME280;61452;40.054;4.110;2022-07-29T02:45:41;101459.25;;;27.69;72.51
73240;BME280;61452;40.054;4.110;2022-07-29T02:50:49;101454.03;;;27.67;72.52
73240;BME280;61452;40.054;4.110;2022-07-29T02:55:59;101455.56;;;27.70;72.40
73240;BME280;61452;40.054;4.110;2022-07-29T03:01:04;101456.41;;;27.70;72.32
73240;BME280;61452;40.054;4.110;2022-07-29T03:06:10;101453.00;;;27.68;72.74
73240;BME280;61452;40.054;4.110;2022-07-29T03:11:34;101455.72;;;27.68;73.58
73240;BME280;61452;40.054;4.110;2022-07-29T03:16:51;101454.88;;;27.68;73.70
73240;BME280;61452;40.054;4.110;2022-07-29T03:21:55;101446.63;;;27.61;73.94
73240;BME280;61452;40.054;4.110;2022-07-29T03:26:58;101452.00;;;27.61;73.54
73240;BME280;61452;40.054;4.110;2022-07-29T03:32:05;101459.25;;;27.69;73.07
73240;BME280;61452;40.054;4.110;2022-07-29T03:37:09;101444.94;;;27.68;72.72
73240;BME280;61452;40.054;4.110;2022-07-29T03:42:13;101454.19;;;27.66;71.99
73240;BME280;61452;40.054;4.110;2022-07-29T03:47:20;101444.75;;;27.54;71.10
73240;BME280;61452;40.054;4.110;2022-07-29T03:52:45;101466.78;;;27.49;71.30
73240;BME280;61452;40.054;4.110;2022-07-29T03:57:49;101458.53;;;27.43;71.81
73240;BME280;61452;40.054;4.110;2022-07-29T04:02:51;101460.22;;;27.44;72.08
73240;BME280;61452;40.054;4.110;2022-07-29T04:07:54;101453.16;;;27.43;72.60
73240;BME280;61452;40.054;4.110;2022-07-29T04:12:59;101455.50;;;27.37;72.88
73240;BME280;61452;40.054;4.110;2022-07-29T04:18:28;101471.84;;;27.44;72.84
73240;BME280;61452;40.054;4.110;2022-07-29T04:23:44;101464.94;;;27.42;73.35
73240;BME280;61452;40.054;4.110;2022-07-29T04:29:07;101473.00;;;27.42;72.71
73240;BME280;61452;40.054;4.110;2022-07-29T04:34:10;101480.28;;;27.33;73.62
73240;BME280;61452;40.054;4.110;2022-07-29T04:39:12;101496.75;;;27.30;73.61
73240;BME280;61452;40.054;4.110;2022-07-29T04:44:19;101481.91;;;27.18;73.71
73240;BME280;61452;40.054;4.110;2022-07-29T04:49:29;101483.09;;;27.15;73.93
73240;BME280;61452;40.054;4.110;2022-07-29T04:54:32;101494.88;;;27.22;73.78
73240;BME280;61452;40.054;4.110;2022-07-29T04:59:34;101482.91;;;27.17;73.82
73240;BME280;61452;40.054;4.110;2022-07-29T05:04:37;101487.81;;;27.13;74.25
73240;BME280;61452;40.054;4.110;2022-07-29T05:09:39;101485.22;;;27.04;75.04
73240;BME280;61452;40.054;4.110;2022-07-29T05:14:42;101491.66;;;27.03;75.19
73240;BME280;61452;40.054;4.110;2022-07-29T05:19:44;101492.50;;;27.03;75.96
73240;BME280;61452;40.054;4.110;2022-07-29T05:24:47;101497.34;;;27.00;76.07
73240;BME280;61452;40.054;4.110;2022-07-29T05:29:49;101506.78;;;27.04;76.36
73240;BME280;61452;40.054;4.110;2022-07-29T05:34:51;101521.63;;;27.08;76.86
73240;BME280;61452;40.054;4.110;2022-07-29T05:39:54;101524.66;;;27.13;76.70
73240;BME280;61452;40.054;4.110;2022-07-29T05:44:58;101518.78;;;27.17;76.26
73240;BME280;61452;40.054;4.110;2022-07-29T05:50:00;101524.88;;;27.27;75.57
73240;BME280;61452;40.054;4.110;2022-07-29T05:55:03;101540.03;;;27.36;74.62
73240;BME280;61452;40.054;4.110;2022-07-29T06:00:07;101542.91;;;27.43;74.15
73240;BME280;61452;40.054;4.110;2022-07-29T06:05:13;101543.94;;;27.50;73.93
73240;BME280;61452;40.054;4.110;2022-07-29T06:10:18;101535.03;;;27.50;73.40
73240;BME280;61452;40.054;4.110;2022-07-29T06:15:24;101554.59;;;27.60;73.04
73240;BME280;61452;40.054;4.110;2022-07-29T06:20:28;101551.59;;;27.63;72.78
73240;BME280;61452;40.054;4.110;2022-07-29T06:25:32;101547.19;;;27.62;73.12
73240;BME280;61452;40.054;4.110;2022-07-29T06:30:38;101560.34;;;27.65;73.05
73240;BME280;61452;40.054;4.110;2022-07-29T06:35:40;101567.78;;;27.71;72.69
73240;BME280;61452;40.054;4.110;2022-07-29T06:40:54;101558.50;;;27.73;72.74
73240;BME280;61452;40.054;4.110;2022-07-29T06:46:04;101549.72;;;27.71;72.94
73240;BME280;61452;40.054;4.110;2022-07-29T06:51:07;101543.31;;;27.72;72.53
73240;BME280;61452;40.054;4.110;2022-07-29T06:56:10;101552.78;;;27.76;72.74
73240;BME280;61452;40.054;4.110;2022-07-29T07:01:14;101553.78;;;27.75;72.78
73240;BME280;61452;40.054;4.110;2022-07-29T07:06:17;101562.22;;;27.81;72.14
73240;BME280;61452;40.054;4.110;2022-07-29T07:11:20;101561.22;;;27.82;72.15
73240;BME280;61452;40.054;4.110;2022-07-29T07:16:22;101566.25;;;27.85;72.31
73240;BME280;61452;40.054;4.110;2022-07-29T07:21:24;101559.69;;;27.79;71.87
73240;BME280;61452;40.054;4.110;2022-07-29T07:26:30;101569.47;;;27.88;71.89
73240;BME280;61452;40.054;4.110;2022-07-29T07:31:33;101553.97;;;27.82;71.95
73240;BME280;61452;40.054;4.110;2022-07-29T07:36:35;101567.94;;;27.86;72.00
73240;BME280;61452;40.054;4.110;2022-07-29T07:41:37;101573.84;;;27.89;71.58
73240;BME280;61452;40.054;4.110;2022-07-29T07:46:40;101572.81;;;27.90;71.82
73240;BME280;61452;40.054;4.110;2022-07-29T07:51:42;101570.31;;;27.89;71.50
73240;BME280;61452;40.054;4.110;2022-07-29T07:56:51;101571.81;;;27.91;71.36
73240;BME280;61452;40.054;4.110;2022-07-29T08:01:54;101571.81;;;27.91;71.27
73240;BME280;61452;40.054;4.110;2022-07-29T08:06:58;101567.28;;;27.92;71.61
73240;BME280;61452;40.054;4.110;2022-07-29T08:12:01;101568.47;;;27.89;72.01
73240;BME280;61452;40.054;4.110;2022-07-29T08:17:07;101559.00;;;27.93;71.78
73240;BME280;61452;40.054;4.110;2022-07-29T08:22:10;101566.25;;;27.93;71.68
73240;BME280;61452;40.054;4.110;2022-07-29T08:27:13;101572.50;;;27.93;72.23
73240;BME280;61452;40.054;4.110;2022-07-29T08:32:36;101567.28;;;27.92;72.29
73240;BME280;61452;40.054;4.110;2022-07-29T08:37:54;101578.22;;;27.90;72.41
73240;BME280;61452;40.054;4.110;2022-07-29T08:43:04;101582.59;;;27.91;72.48
73240;BME280;61452;40.054;4.110;2022-07-29T08:48:07;101577.06;;;27.93;72.28
73240;BME280;61452;40.054;4.110;2022-07-29T08:53:12;101582.59;;;27.91;72.17
73240;BME280;61452;40.054;4.110;2022-07-29T08:58:15;101584.28;;;27.92;72.56
73240;BME280;61452;40.054;4.110;2022-07-29T09:03:19;101591.56;;;28.00;72.58
73240;BME280;61452;40.054;4.110;2022-07-29T09:08:22;101597.63;;;28.10;73.45
73240;BME280;61452;40.054;4.110;2022-07-29T09:13:25;101603.22;;;28.16;73.18
73240;BME280;61452;40.054;4.110;2022-07-29T09:18:41;101605.75;;;28.18;72.99
73240;BME280;61452;40.054;4.110;2022-07-29T09:24:10;101603.22;;;28.25;75.05
73240;BME280;61452;40.054;4.110;2022-07-29T09:29:19;101606.25;;;28.30;74.70
73240;BME280;61452;40.054;4.110;2022-07-29T09:34:26;101607.41;;;28.35;76.95
73240;BME280;61452;40.054;4.110;2022-07-29T09:39:40;101605.72;;;28.34;76.62
73240;BME280;61452;40.054;4.110;2022-07-29T09:44:49;101613.34;;;28.39;76.83
73240;BME280;61452;40.054;4.110;2022-07-29T09:49:55;101612.50;;;28.38;75.17
73240;BME280;61452;40.054;4.110;2022-07-29T09:55:09;101619.38;;;28.41;75.48
73240;BME280;61452;40.054;4.110;2022-07-29T10:00:20;101611.44;;;28.39;74.84
73240;BME280;61452;40.054;4.110;2022-07-29T10:05:26;101612.31;;;28.40;74.15
73240;BME280;61452;40.054;4.110;2022-07-29T10:10:41;101623.25;;;28.46;73.79
73240;BME280;61452;40.054;4.110;2022-07-29T10:15:44;101611.44;;;28.47;73.60
73240;BME280;61452;40.054;4.110;2022-07-29T10:20:48;101604.72;;;28.43;73.22
73240;BME280;61452;40.054;4.110;2022-07-29T10:25:51;101603.53;;;28.46;72.50
73240;BME280;61452;40.054;4.110;2022-07-29T10:31:00;101599.31;;;28.43;72.55
73240;BME280;61452;40.054;4.110;2022-07-29T10:46:44;101601.84;;;28.45;72.00
73240;BME280;61452;40.054;4.110;2022-07-29T10:56:52;101615.84;;;28.40;71.50
73240;BME280;61452;40.054;4.110;2022-07-29T11:01:54;101616.19;;;28.37;71.47
73240;BME280;61452;40.054;4.110;2022-07-29T11:07:17;101604.56;;;28.37;71.37
73240;BME280;61452;40.054;4.110;2022-07-29T11:22:55;101612.97;;;28.34;71.50
73240;BME280;61452;40.054;4.110;2022-07-29T11:28:10;101619.59;;;28.31;70.99
73240;BME280;61452;40.054;4.110;2022-07-29T11:33:33;101624.97;;;28.31;71.08
73240;BME280;61452;40.054;4.110;2022-07-29T11:39:25;101632.06;;;28.32;71.15
73240;BME280;61452;40.054;4.110;2022-07-29T11:45:07;101633.06;;;28.31;70.63
73240;BME280;61452;40.054;4.110;2022-07-29T11:50:33;101629.38;;;28.32;70.89
73240;BME280;61452;40.054;4.110;2022-07-29T11:55:38;101627.84;;;28.30;70.72
73240;BME280;61452;40.054;4.110;2022-07-29T12:00:52;101635.09;;;28.29;70.52
73240;BME280;61452;40.054;4.110;2022-07-29T12:05:56;101647.22;;;28.33;69.67
73240;BME280;61452;40.054;4.110;2022-07-29T12:10:59;101651.81;;;28.33;69.25
73240;BME280;61452;40.054;4.110;2022-07-29T12:16:02;101652.81;;;28.32;69.32
73240;BME280;61452;40.054;4.110;2022-07-29T12:21:05;101650.97;;;28.32;69.34
73240;BME280;61452;40.054;4.110;2022-07-29T12:26:10;101644.03;;;28.30;69.05
73240;BME280;61452;40.054;4.110;2022-07-29T12:31:27;101648.25;;;28.32;68.38
73240;BME280;61452;40.054;4.110;2022-07-29T12:36:46;101648.25;;;28.32;67.74
73240;BME280;61452;40.054;4.110;2022-07-29T12:41:48;101669.84;;;28.32;66.74
73240;BME280;61452;40.054;4.110;2022-07-29T12:47:03;101667.31;;;28.31;65.24
73240;BME280;61452;40.054;4.110;2022-07-29T12:52:24;101666.47;;;28.30;65.22
73240;BME280;61452;40.054;4.110;2022-07-29T12:57:27;101670.00;;;28.31;65.67
73240;BME280;61452;40.054;4.110;2022-07-29T13:02:29;101670.00;;;28.31;66.13
73240;BME280;61452;40.054;4.110;2022-07-29T13:07:33;101666.13;;;28.33;66.28
73240;BME280;61452;40.054;4.110;2022-07-29T13:13:05;101658.84;;;28.34;66.53
73240;BME280;61452;40.054;4.110;2022-07-29T13:23:29;101679.59;;;28.33;66.75
73240;BME280;61452;40.054;4.110;2022-07-29T13:28:38;101675.06;;;28.34;66.61
73240;BME280;61452;40.054;4.110;2022-07-29T13:33:44;101665.94;;;28.35;66.59
73240;BME280;61452;40.054;4.110;2022-07-29T13:38:47;101669.50;;;28.35;66.72
73240;BME280;61452;40.054;4.110;2022-07-29T13:43:49;101663.09;;;28.36;66.18
73240;BME280;61452;40.054;4.110;2022-07-29T13:48:51;101664.94;;;28.36;65.60
73240;BME280;61452;40.054;4.110;2022-07-29T13:53:54;101662.25;;;28.36;65.57
73240;BME280;61452;40.054;4.110;2022-07-29T13:58:56;101652.28;;;28.36;65.38
73240;BME280;61452;40.054;4.110;2022-07-29T14:03:59;101651.44;;;28.36;64.89
73240;BME280;61452;40.054;4.110;2022-07-29T14:09:03;101650.44;;;28.37;64.77
73240;BME280;61452;40.054;4.110;2022-07-29T14:14:08;101657.53;;;28.38;64.35
73240;BME280;61452;40.054;4.110;2022-07-29T14:19:12;101648.91;;;28.34;64.58
73240;BME280;61452;40.054;4.110;2022-07-29T14:24:14;101652.47;;;28.35;65.02
73240;BME280;61452;40.054;4.110;2022-07-29T14:29:23;101652.13;;;28.38;65.54
73240;BME280;61452;40.054;4.110;2022-07-29T14:34:38;101646.75;;;28.38;65.68
73240;BME280;61452;40.054;4.110;2022-07-29T14:39:41;101637.94;;;28.36;65.69
73240;BME280;61452;40.054;4.110;2022-07-29T14:44:44;101634.25;;;28.37;65.72
73240;BME280;61452;40.054;4.110;2022-07-29T14:49:47;101624.94;;;28.39;65.79
73240;BME280;61452;40.054;4.110;2022-07-29T14:54:49;101616.03;;;28.39;65.74
73240;BME280;61452;40.054;4.110;2022-07-29T14:59:52;101611.28;;;28.41;65.52
73240;BME280;61452;40.054;4.110;2022-07-29T15:04:54;101609.44;;;28.41;65.43
73240;BME280;61452;40.054;4.110;2022-07-29T15:09:56;101607.59;;;28.42;65.15
73240;BME280;61452;40.054;4.110;2022-07-29T15:15:00;101598.63;;;28.41;65.31
73240;BME280;61452;40.054;4.110;2022-07-29T15:20:04;101608.44;;;28.42;65.24
73240;BME280;61452;40.054;4.110;2022-07-29T15:25:07;101614.00;;;28.41;65.00
73240;BME280;61452;40.054;4.110;2022-07-29T15:30:10;101611.28;;;28.41;64.96
73240;BME280;61452;40.054;4.110;2022-07-29T15:35:32;101604.19;;;28.40;64.83
73240;BME280;61452;40.054;4.110;2022-07-29T15:40:41;101604.88;;;28.42;64.83
73240;BME280;61452;40.054;4.110;2022-07-29T15:45:45;101601.00;;;28.44;65.07
73240;BME280;61452;40.054;4.110;2022-07-29T15:51:07;101611.63;;;28.46;64.56
73240;BME280;61452;40.054;4.110;2022-07-29T15:56:10;101601.66;;;28.46;64.71
73240;BME280;61452;40.054;4.110;2022-07-29T16:01:12;101613.47;;;28.45;64.51
73240;BME280;61452;40.054;4.110;2022-07-29T16:06:16;101618.72;;;28.47;64.32
73240;BME280;61452;40.054;4.110;2022-07-29T16:11:18;101602.19;;;28.50;62.72
73240;BME280;61452;40.054;4.110;2022-07-29T16:16:20;101598.63;;;28.49;62.57
73240;BME280;61452;40.054;4.110;2022-07-29T16:21:23;101598.63;;;28.49;63.05
73240;BME280;61452;40.054;4.110;2022-07-29T16:26:26;101588.69;;;28.50;63.06
73240;BME280;61452;40.054;4.110;2022-07-29T16:31:28;101590.19;;;28.52;63.02
73240;BME280;61452;40.054;4.110;2022-07-29T16:36:30;101581.91;;;28.54;62.51
73240;BME280;61452;40.054;4.110;2022-07-29T16:41:33;101592.19;;;28.58;61.22
73240;BME280;61452;40.054;4.110;2022-07-29T16:46:35;101595.41;;;28.62;61.06
73240;BME280;61452;40.054;4.110;2022-07-29T16:51:42;101588.16;;;28.63;61.46
73240;BME280;61452;40.054;4.110;2022-07-29T16:56:44;101582.75;;;28.63;61.16
73240;BME280;61452;40.054;4.110;2022-07-29T17:01:47;101581.53;;;28.65;60.61
73240;BME280;61452;40.054;4.110;2022-07-29T17:06:49;101583.91;;;28.68;59.85
73240;BME280;61452;40.054;4.110;2022-07-29T17:11:52;101593.34;;;28.72;59.66
73240;BME280;61452;40.054;4.110;2022-07-29T17:16:57;101598.63;;;28.74;60.74
73240;BME280;61452;40.054;4.110;2022-07-29T17:22:04;101601.63;;;28.79;59.95
73240;BME280;61452;40.054;4.110;2022-07-29T17:27:16;101623.56;;;28.84;60.20
73240;BME280;61452;40.054;4.110;2022-07-29T17:32:18;101621.69;;;28.84;60.39
73240;BME280;61452;40.054;4.110;2022-07-29T17:37:21;101622.03;;;28.89;59.90
73240;BME280;61452;40.054;4.110;2022-07-29T17:42:23;101620.00;;;28.91;60.39
73240;BME280;61452;40.054;4.110;2022-07-29T17:47:25;101616.44;;;28.91;59.89
73240;BME280;61452;40.054;4.110;2022-07-29T17:52:28;101631.13;;;28.96;59.62
73240;BME280;61452;40.054;4.110;2022-07-29T17:57:30;101631.97;;;28.97;60.10
73240;BME280;61452;40.054;4.110;2022-07-29T18:02:32;101647.16;;;28.98;60.71
73240;BME280;61452;40.054;4.110;2022-07-29T18:07:35;101646.31;;;28.98;60.73
73240;BME280;61452;40.054;4.110;2022-07-29T18:12:37;101657.13;;;28.98;60.54
73240;BME280;61452;40.054;4.110;2022-07-29T18:17:40;101666.25;;;28.96;60.96
73240;BME280;61452;40.054;4.110;2022-07-29T18:23:00;101668.47;;;28.93;60.91
73240;BME280;61452;40.054;4.110;2022-07-29T18:28:02;101665.75;;;28.93;60.64
73240;BME280;61452;40.054;4.110;2022-07-29T18:33:05;101659.16;;;28.95;60.55
73240;BME280;61452;40.054;4.110;2022-07-29T18:38:25;101650.25;;;28.87;60.28
73240;BME280;61452;40.054;4.110;2022-07-29T18:43:27;101657.66;;;28.85;60.97
73240;BME280;61452;40.054;4.110;2022-07-29T18:48:31;101665.28;;;28.81;60.75
73240;BME280;61452;40.054;4.110;2022-07-29T18:53:34;101655.66;;;28.79;60.93
73240;BME280;61452;40.054;4.110;2022-07-29T18:58:37;101633.84;;;28.72;60.88
73240;BME280;61452;40.054;4.110;2022-07-29T19:03:40;101649.03;;;28.73;61.64
73240;BME280;61452;40.054;4.110;2022-07-29T19:08:42;101639.41;;;28.71;61.65
73240;BME280;61452;40.054;4.110;2022-07-29T19:13:44;101638.78;;;28.69;61.59
73240;BME280;61452;40.054;4.110;2022-07-29T19:18:47;101626.59;;;28.65;61.51
73240;BME280;61452;40.054;4.110;2022-07-29T19:23:49;101644.50;;;28.66;61.41
73240;BME280;61452;40.054;4.110;2022-07-29T19:29:09;101638.44;;;28.64;61.34
73240;BME280;61452;40.054;4.110;2022-07-29T19:34:11;101645.03;;;28.61;61.59
73240;BME280;61452;40.054;4.110;2022-07-29T19:39:13;101652.97;;;28.63;61.75
73240;BME280;61452;40.054;4.110;2022-07-29T19:44:16;101663.91;;;28.61;61.84
73240;BME280;61452;40.054;4.110;2022-07-29T19:49:18;101667.78;;;28.58;61.99
73240;BME280;61452;40.054;4.110;2022-07-29T19:54:21;101679.63;;;28.58;62.40
73240;BME280;61452;40.054;4.110;2022-07-29T19:59:23;101684.19;;;28.57;62.68
73240;BME280;61452;40.054;4.110;2022-07-29T20:04:30;101674.41;;;28.56;62.78
73240;BME280;61452;40.054;4.110;2022-07-29T20:09:33;101690.75;;;28.54;62.88
73240;BME280;61452;40.054;4.110;2022-07-29T20:14:36;101703.41;;;28.54;63.07
73240;BME280;61452;40.054;4.110;2022-07-29T20:19:38;101724.00;;;28.55;63.21
73240;BME280;61452;40.054;4.110;2022-07-29T20:24:41;101727.88;;;28.52;63.50
73240;BME280;61452;40.054;4.110;2022-07-29T20:29:45;101731.41;;;28.53;63.51
73240;BME280;61452;40.054;4.110;2022-07-29T20:34:47;101745.09;;;28.51;63.75
73240;BME280;61452;40.054;4.110;2022-07-29T20:39:49;101740.34;;;28.53;63.90
73240;BME280;61452;40.054;4.110;2022-07-29T20:44:52;101740.72;;;28.50;63.85
73240;BME280;61452;40.054;4.110;2022-07-29T20:49:54;101742.72;;;28.48;64.10
73240;BME280;61452;40.054;4.110;2022-07-29T20:54:57;101758.75;;;28.50;64.16
73240;BME280;61452;40.054;4.110;2022-07-29T20:59:59;101770.41;;;28.50;64.14
73240;BME280;61452;40.054;4.110;2022-07-29T21:05:02;101758.91;;;28.48;64.61
73240;BME280;61452;40.054;4.110;2022-07-29T21:10:04;101756.38;;;28.47;64.63
73240;BME280;61452;40.054;4.110;2022-07-29T21:15:07;101761.94;;;28.45;65.14
73240;BME280;61452;40.054;4.110;2022-07-29T21:20:10;101758.06;;;28.48;65.22
73240;BME280;61452;40.054;4.110;2022-07-29T21:25:12;101757.91;;;28.49;65.63
73240;BME280;61452;40.054;4.110;2022-07-29T21:30:15;101761.63;;;28.48;66.19
73240;BME280;61452;40.054;4.110;2022-07-29T21:35:17;101758.91;;;28.48;66.11
73240;BME280;61452;40.054;4.110;2022-07-29T21:40:39;101758.41;;;28.45;65.82
73240;BME280;61452;40.054;4.110;2022-07-29T21:45:42;101763.47;;;28.48;65.96
73240;BME280;61452;40.054;4.110;2022-07-29T21:50:45;101776.13;;;28.47;66.30
73240;BME280;61452;40.054;4.110;2022-07-29T21:55:48;101772.72;;;28.45;66.88
73240;BME280;61452;40.054;4.110;2022-07-29T22:00:56;101778.81;;;28.47;67.22
73240;BME280;61452;40.054;4.110;2022-07-29T22:05:58;101778.81;;;28.47;67.16
73240;BME280;61452;40.054;4.110;2022-07-29T22:11:01;101781.69;;;28.46;67.27
73240;BME280;61452;40.054;4.110;2022-07-29T22:16:03;101773.59;;;28.46;67.04
73240;BME280;61452;40.054;4.110;2022-07-29T22:21:06;101779.81;;;28.46;66.88
73240;BME280;61452;40.054;4.110;2022-07-29T22:26:08;101788.94;;;28.45;66.91
73240;BME280;61452;40.054;4.110;2022-07-29T22:31:11;101784.22;;;28.47;67.22
73240;BME280;61452;40.054;4.110;2022-07-29T22:36:13;101797.03;;;28.45;67.69
73240;BME280;61452;40.054;4.110;2022-07-29T22:41:16;101783.53;;;28.45;67.80
73240;BME280;61452;40.054;4.110;2022-07-29T22:46:18;101782.72;;;28.45;68.32
73240;BME280;61452;40.054;4.110;2022-07-29T22:51:20;101790.31;;;28.49;68.61
73240;BME280;61452;40.054;4.110;2022-07-29T22:56:23;101793.16;;;28.48;68.25
73240;BME280;61452;40.054;4.110;2022-07-29T23:07:20;101783.22;;;28.48;68.11
73240;BME280;61452;40.054;4.110;2022-07-29T23:12:22;101777.81;;;28.48;68.61
73240;BME280;61452;40.054;4.110;2022-07-29T23:17:25;101768.03;;;28.47;68.85
73240;BME280;61452;40.054;4.110;2022-07-29T23:22:27;101752.66;;;28.48;69.11
73240;BME280;61452;40.054;4.110;2022-07-29T23:27:29;101749.97;;;28.48;69.38
73240;BME280;61452;40.054;4.110;2022-07-29T23:32:32;101756.38;;;28.47;69.49
73240;BME280;61452;40.054;4.110;2022-07-29T23:37:34;101753.84;;;28.45;69.56
73240;BME280;61452;40.054;4.110;2022-07-29T23:42:37;101760.09;;;28.46;69.81
73240;BME280;61452;40.054;4.110;2022-07-29T23:47:40;101766.34;;;28.46;69.58
73240;BME280;61452;40.054;4.110;2022-07-29T23:52:43;101770.72;;;28.47;70.06
73240;BME280;61452;40.054;4.110;2022-07-29T23:57:45;101765.31;;;28.47;70.27
